MV Lockmaster — WDF4136 — position and weather

sailwx.info

Track history (hours):
 
Tides and Currents Weather Stations Pressure Air Temp Water Temp Dewpoint Dewpoint Depression Visibility Wind Speed Wind Dir Waves Ship Positions

MV Lockmaster

Owner: River Construction, Metaire, LA. More information available from US FCC via Universal Licensing System and Coast Guard Vessel Documentation Center.

Last reported at 2014-Oct-24 13:05 UTC. Time now 2014-Oct-24 21:26 UTC.
Position N 30°00' W 089°59'.

Type: Towing. MMSI: 367448420.

Date/timePositionNaut miles runAvg speedWind from/ knotsBaromVisibWave heightAir tempDewpointWater temp
2014-Oct-24 13:05N 30°00' W 089°59'0 0.0
2014-Oct-24 12:31N 30°00' W 089°59'0 0.0
2014-Oct-24 07:16N 29°60' W 089°59'0 0.1
2014-Oct-24 05:28N 29°60' W 089°59'0 0.0
2014-Oct-24 04:33N 29°60' W 089°59'3 2.9
2014-Oct-24 03:32N 29°58' W 090°02'2 1.5
2014-Oct-24 02:26N 29°57' W 090°03'0 0.2
2014-Oct-24 01:31N 29°57' W 090°03'0 0.4
2014-Oct-24 00:34N 29°58' W 090°03'0 0.1
2014-Oct-23 23:32N 29°58' W 090°03'3 3.4
2014-Oct-23 22:33N 29°60' W 090°00'1 0.5
2014-Oct-23 21:30N 30°00' W 089°59'0 0.0
2014-Oct-23 20:26N 30°00' W 089°59'0 0.1
2014-Oct-23 19:31N 30°00' W 089°59'0 0.0
2014-Oct-23 18:33N 30°00' W 089°59'0 0.0
2014-Oct-23 04:33N 30°00' W 089°59'0 0.0
2014-Oct-23 03:25N 30°00' W 089°59'0 0.0
2014-Oct-23 02:29N 30°00' W 089°59'0 0.0
2014-Oct-23 01:29N 30°00' W 089°59'0 0.1
2014-Oct-23 00:33N 29°60' W 089°59'0 0.1
2014-Oct-22 23:31N 29°60' W 089°59'0 0.0
2014-Oct-22 22:31N 29°60' W 089°59'0 0.0
2014-Oct-22 21:30N 29°60' W 089°59'0 0.1
2014-Oct-22 20:33N 30°00' W 089°59'0 0.0
2014-Oct-22 19:33N 30°00' W 089°59'0 0.0
2014-Oct-22 18:32N 30°00' W 089°59'0 0.0
2014-Oct-22 17:31N 30°00' W 089°59'5 1.2
2014-Oct-22 13:19N 30°01' W 089°54'  
2014-Oct-18 12:20N 29°60' W 089°59'  
Track history (hours):
 
Tides and Currents Weather Stations Pressure Air Temp Water Temp Dewpoint Dewpoint Depression Visibility Wind Speed Wind Dir Waves Ship Positions

MV Lockmaster

Owner: River Construction, Metaire, LA. More information available from US FCC via Universal Licensing System and Coast Guard Vessel Documentation Center.

Last reported at 2014-Oct-24 13:05 UTC. Time now 2014-Oct-24 21:26 UTC.
Position N 30°00' W 089°59'.

Type: Towing. MMSI: 367448420.

Date/timePositionNaut miles runAvg speedWind from/ knotsBaromVisibWave heightAir tempDewpointWater temp
2014-Oct-24 13:05N 30°00' W 089°59'0 0.0
2014-Oct-24 12:31N 30°00' W 089°59'0 0.0
2014-Oct-24 07:16N 29°60' W 089°59'0 0.1
2014-Oct-24 05:28N 29°60' W 089°59'0 0.0
2014-Oct-24 04:33N 29°60' W 089°59'3 2.9
2014-Oct-24 03:32N 29°58' W 090°02'2 1.5
2014-Oct-24 02:26N 29°57' W 090°03'0 0.2
2014-Oct-24 01:31N 29°57' W 090°03'0 0.4
2014-Oct-24 00:34N 29°58' W 090°03'0 0.1
2014-Oct-23 23:32N 29°58' W 090°03'3 3.4
2014-Oct-23 22:33N 29°60' W 090°00'1 0.5
2014-Oct-23 21:30N 30°00' W 089°59'0 0.0
2014-Oct-23 20:26N 30°00' W 089°59'0 0.1
2014-Oct-23 19:31N 30°00' W 089°59'0 0.0
2014-Oct-23 18:33N 30°00' W 089°59'0 0.0
2014-Oct-23 04:33N 30°00' W 089°59'0 0.0
2014-Oct-23 03:25N 30°00' W 089°59'0 0.0
2014-Oct-23 02:29N 30°00' W 089°59'0 0.0
2014-Oct-23 01:29N 30°00' W 089°59'0 0.1
2014-Oct-23 00:33N 29°60' W 089°59'0 0.1
2014-Oct-22 23:31N 29°60' W 089°59'0 0.0
2014-Oct-22 22:31N 29°60' W 089°59'0 0.0
2014-Oct-22 21:30N 29°60' W 089°59'0 0.1
2014-Oct-22 20:33N 30°00' W 089°59'0 0.0
2014-Oct-22 19:33N 30°00' W 089°59'0 0.0
2014-Oct-22 18:32N 30°00' W 089°59'0 0.0
2014-Oct-22 17:31N 30°00' W 089°59'5 1.2
2014-Oct-22 13:19N 30°01' W 089°54'  
2014-Oct-18 12:20N 29°60' W 089°59'  

Dump ship's entire track history